createdAt,value
2023-05-14T00:00:36.309Z,100971.34
2023-05-14T00:03:24.438Z,100968.84
2023-05-14T00:05:52.457Z,100968.29
2023-05-14T00:08:20.723Z,100964.67
2023-05-14T00:10:48.703Z,100965.42
2023-05-14T00:13:16.898Z,100961.65
2023-05-14T00:15:45.342Z,100960.55
2023-05-14T00:18:13.521Z,100959.94
2023-05-14T00:20:41.718Z,100958.30
2023-05-14T00:23:10.172Z,100962.86
2023-05-14T00:25:38.818Z,100958.27
2023-05-14T00:28:07.858Z,100958.32
2023-05-14T00:30:36.274Z,100958.41
2023-05-14T00:33:04.345Z,100960.30
2023-05-14T00:35:37.163Z,100956.70
2023-05-14T00:38:05.390Z,100955.45
2023-05-14T00:40:34.292Z,100951.41
2023-05-14T00:43:03.772Z,100953.75
2023-05-14T00:45:31.817Z,100952.79
2023-05-14T00:48:00.062Z,100951.27
2023-05-14T00:50:28.500Z,100952.04
2023-05-14T00:52:56.767Z,100952.30
2023-05-14T00:55:25.835Z,100952.90
2023-05-14T00:57:58.178Z,100952.98
2023-05-14T01:00:26.355Z,100949.75
2023-05-14T01:02:54.400Z,100950.52
2023-05-14T01:05:26.432Z,100953.20
2023-05-14T01:08:16.667Z,100949.58
2023-05-14T01:10:52.401Z,100949.98
2023-05-14T01:13:37.585Z,100949.94
2023-05-14T01:16:12.529Z,100946.75
2023-05-14T01:18:43.447Z,100947.20
2023-05-14T01:21:34.950Z,100946.23
2023-05-14T01:24:03.188Z,100949.77
2023-05-14T01:26:31.704Z,100950.63
2023-05-14T01:29:06.760Z,100947.09
2023-05-14T01:31:39.135Z,100941.11
2023-05-14T01:34:10.059Z,100941.77
2023-05-14T01:36:40.415Z,100939.02
2023-05-14T01:39:10.858Z,100939.06
2023-05-14T01:41:40.523Z,100935.72
2023-05-14T01:44:11.969Z,100933.55
2023-05-14T01:46:40.235Z,100937.78
2023-05-14T01:49:08.563Z,100938.20
2023-05-14T01:51:37.837Z,100937.25
2023-05-14T01:54:06.214Z,100936.79
2023-05-14T01:56:34.617Z,100936.18
2023-05-14T01:59:02.598Z,100932.39
2023-05-14T02:01:31.814Z,100931.86
2023-05-14T02:04:01.202Z,100931.65
2023-05-14T02:06:29.368Z,100931.10
2023-05-14T02:08:57.615Z,100931.41
2023-05-14T02:11:26.406Z,100926.89
2023-05-14T02:13:56.031Z,100928.74
2023-05-14T02:16:24.178Z,100924.02
2023-05-14T02:18:53.024Z,100922.38
2023-05-14T02:21:26.976Z,100919.21
2023-05-14T02:23:57.807Z,100917.41
2023-05-14T02:26:25.885Z,100916.82
2023-05-14T02:28:53.974Z,100914.35
2023-05-14T02:31:22.071Z,100916.70
2023-05-14T02:33:50.425Z,100914.55
2023-05-14T02:36:18.676Z,100915.97
2023-05-14T02:38:46.719Z,100921.73
2023-05-14T02:41:14.958Z,100920.98
2023-05-14T02:43:42.907Z,100920.53
2023-05-14T02:46:11.101Z,100927.95
2023-05-14T02:48:39.084Z,100922.29
2023-05-14T02:51:08.418Z,100921.52
2023-05-14T02:53:36.618Z,100918.76
2023-05-14T02:56:05.033Z,100916.05
2023-05-14T02:58:33.184Z,100916.67
2023-05-14T03:01:01.326Z,100917.28
2023-05-14T03:03:31.416Z,100917.73
2023-05-14T03:05:59.839Z,100918.23
2023-05-14T03:08:27.973Z,100917.95
2023-05-14T03:10:56.102Z,100916.04
2023-05-14T03:13:24.175Z,100916.71
2023-05-14T03:15:55.080Z,100908.92
2023-05-14T03:18:24.759Z,100904.04
2023-05-14T03:20:52.889Z,100901.53
2023-05-14T03:23:21.072Z,100896.81
2023-05-14T03:25:49.100Z,100897.02
2023-05-14T03:28:17.094Z,100895.65
2023-05-14T03:30:45.133Z,100893.59
2023-05-14T03:33:13.764Z,100890.46
2023-05-14T03:35:41.924Z,100890.83
2023-05-14T03:38:10.206Z,100892.08
2023-05-14T03:40:38.298Z,100892.41
2023-05-14T03:43:06.458Z,100891.95
2023-05-14T03:45:35.443Z,100888.80
2023-05-14T03:48:03.811Z,100888.21
2023-05-14T03:50:34.352Z,100890.09
2023-05-14T03:53:02.392Z,100886.08
2023-05-14T03:55:31.460Z,100887.38
2023-05-14T03:57:59.440Z,100886.98
2023-05-14T04:05:12.592Z,100880.27
2023-05-14T04:07:40.860Z,100877.94
2023-05-14T04:10:09.298Z,100875.98
2023-05-14T04:12:37.492Z,100879.66
2023-05-14T04:15:06.710Z,100881.85
2023-05-14T04:17:35.163Z,100884.23
2023-05-14T04:20:04.563Z,100886.59
2023-05-14T04:22:32.839Z,100885.02
2023-05-14T04:25:00.806Z,100885.52
2023-05-14T04:27:29.019Z,100885.73
2023-05-14T04:29:57.009Z,100887.69
2023-05-14T04:34:37.658Z,100892.50
2023-05-14T04:37:05.612Z,100882.52
2023-05-14T04:39:33.752Z,100881.37
2023-05-14T04:42:01.882Z,100875.95
2023-05-14T04:44:29.806Z,100866.70
2023-05-14T04:46:57.779Z,100864.13
2023-05-14T04:49:26.193Z,100864.45
2023-05-14T04:51:54.188Z,100864.23
2023-05-14T04:54:22.193Z,100863.71
2023-05-14T04:56:50.405Z,100866.73
2023-05-14T04:59:18.257Z,100861.97
2023-05-14T05:01:46.700Z,100859.05
2023-05-14T05:04:14.717Z,100859.58
2023-05-14T05:06:42.748Z,100856.33
2023-05-14T05:09:11.800Z,100859.67
2023-05-14T05:11:40.085Z,100860.63
2023-05-14T05:14:08.043Z,100858.80
2023-05-14T05:16:36.270Z,100859.73
2023-05-14T05:19:04.299Z,100863.07
2023-05-14T05:21:32.332Z,100860.80
2023-05-14T05:24:00.260Z,100860.73
2023-05-14T05:26:28.452Z,100862.31
2023-05-14T05:28:56.441Z,100861.08
2023-05-14T05:31:25.076Z,100858.58
2023-05-14T05:33:53.200Z,100859.46
2023-05-14T05:36:21.273Z,100861.60
2023-05-14T05:38:49.242Z,100865.91
2023-05-14T05:41:17.409Z,100867.21
2023-05-14T05:43:45.714Z,100871.23
2023-05-14T05:46:14.750Z,100872.13
2023-05-14T05:48:43.794Z,100869.61
2023-05-14T05:51:12.098Z,100869.08
2023-05-14T05:53:40.399Z,100863.48
2023-05-14T05:56:08.249Z,100863.48
2023-05-14T05:58:37.186Z,100857.60
2023-05-14T06:01:05.214Z,100862.23
2023-05-14T06:03:33.552Z,100860.33
2023-05-14T06:06:01.416Z,100860.68
2023-05-14T06:08:29.373Z,100857.98
2023-05-14T06:10:57.660Z,100858.46
2023-05-14T06:13:26.275Z,100852.61
2023-05-14T06:15:54.689Z,100858.74
2023-05-14T06:18:22.596Z,100852.42
2023-05-14T06:20:50.594Z,100854.44
2023-05-14T06:23:18.581Z,100853.30
2023-05-14T06:25:47.897Z,100852.06
2023-05-14T06:28:17.535Z,100854.23
2023-05-14T06:30:45.499Z,100852.33
2023-05-14T06:33:15.091Z,100857.23
2023-05-14T06:35:44.591Z,100856.23
2023-05-14T06:38:12.503Z,100862.73
2023-05-14T06:40:40.403Z,100863.80
2023-05-14T06:43:08.537Z,100856.70
2023-05-14T06:45:36.643Z,100853.75
2023-05-14T06:48:04.816Z,100855.45
2023-05-14T06:50:32.735Z,100849.45
2023-05-14T06:53:00.947Z,100841.36
2023-05-14T06:55:28.843Z,100841.70
2023-05-14T06:57:56.720Z,100842.17
2023-05-14T07:00:25.119Z,100837.36
2023-05-14T07:02:53.431Z,100836.89
2023-05-14T07:05:21.660Z,100834.67
2023-05-14T07:07:50.214Z,100830.40
2023-05-14T07:10:18.137Z,100828.38
2023-05-14T07:12:46.101Z,100827.98
2023-05-14T07:15:14.766Z,100827.23
2023-05-14T07:17:42.985Z,100828.30
2023-05-14T07:20:11.572Z,100830.41
2023-05-14T07:22:39.622Z,100822.31
2023-05-14T07:25:08.003Z,100820.98
2023-05-14T07:27:36.047Z,100822.88
2023-05-14T07:30:04.295Z,100821.35
2023-05-14T07:32:32.154Z,100822.93
2023-05-14T07:35:00.235Z,100821.39
2023-05-14T07:37:28.136Z,100820.58
2023-05-14T07:39:56.395Z,100820.25
2023-05-14T07:42:35.159Z,100820.09
2023-05-14T07:45:04.366Z,100816.73
2023-05-14T07:47:32.485Z,100815.38
2023-05-14T07:50:00.601Z,100811.39
2023-05-14T07:52:28.799Z,100804.49
2023-05-14T07:54:56.724Z,100806.63
2023-05-14T07:57:26.470Z,100801.20
2023-05-14T07:59:54.334Z,100800.74
2023-05-14T08:02:22.605Z,100798.54
2023-05-14T08:04:50.594Z,100797.10
2023-05-14T08:07:18.834Z,100789.25
2023-05-14T08:09:47.183Z,100785.83
2023-05-14T08:12:16.065Z,100781.25
2023-05-14T08:14:44.179Z,100777.09
2023-05-14T08:17:12.452Z,100778.04
2023-05-14T08:19:40.692Z,100778.25
2023-05-14T08:22:08.708Z,100776.64
2023-05-14T08:24:36.592Z,100778.88
2023-05-14T08:27:04.752Z,100771.55
2023-05-14T08:29:32.904Z,100770.44
2023-05-14T08:32:08.390Z,100769.11
2023-05-14T08:34:44.130Z,100766.48
2023-05-14T08:37:12.443Z,100767.38
2023-05-14T08:39:40.813Z,100763.49
2023-05-14T08:42:12.314Z,100762.05
2023-05-14T08:44:46.715Z,100755.60
2023-05-14T08:47:15.943Z,100750.39
2023-05-14T08:49:46.600Z,100759.28
2023-05-14T08:52:16.402Z,100755.35
2023-05-14T08:54:45.486Z,100758.66
2023-05-14T08:57:14.872Z,100753.33
2023-05-14T08:59:43.728Z,100755.08
2023-05-14T09:02:14.553Z,100763.42
2023-05-14T09:04:42.697Z,100751.75
2023-05-14T09:07:11.628Z,100751.70
2023-05-14T09:09:40.487Z,100750.46
2023-05-14T09:12:08.828Z,100748.90
2023-05-14T09:14:36.930Z,100744.23
2023-05-14T09:17:05.410Z,100744.12
2023-05-14T09:19:33.425Z,100742.80
2023-05-14T09:22:01.326Z,100739.98
2023-05-14T09:24:29.684Z,100737.87
2023-05-14T09:26:58.120Z,100739.56
2023-05-14T09:29:27.788Z,100733.79
2023-05-14T09:31:56.984Z,100738.64
2023-05-14T09:34:26.261Z,100734.73
2023-05-14T09:36:57.360Z,100733.96
2023-05-14T09:39:26.479Z,100732.09
2023-05-14T09:41:54.957Z,100734.42
2023-05-14T09:44:23.452Z,100734.14
2023-05-14T09:46:52.162Z,100729.98
2023-05-14T09:49:22.071Z,100726.66
2023-05-14T09:51:51.201Z,100720.52
2023-05-14T09:54:19.282Z,100714.48
2023-05-14T09:56:47.170Z,100715.90
2023-05-14T09:59:15.253Z,100712.13
2023-05-14T10:01:44.423Z,100706.75
2023-05-14T10:04:12.948Z,100710.77
2023-05-14T10:06:43.432Z,100712.02
2023-05-14T10:09:13.284Z,100715.88
2023-05-14T10:11:45.371Z,100704.20
2023-05-14T10:14:18.554Z,100703.34
2023-05-14T10:16:50.511Z,100693.11
2023-05-14T10:19:20.968Z,100704.77
2023-05-14T10:21:53.241Z,100703.46
2023-05-14T10:24:22.090Z,100698.70
2023-05-14T10:26:50.124Z,100701.06
2023-05-14T10:29:18.090Z,100697.37
2023-05-14T10:31:47.405Z,100691.79
2023-05-14T10:34:31.505Z,100693.64
2023-05-14T10:37:00.902Z,100693.25
2023-05-14T10:39:45.225Z,100683.63
2023-05-14T10:42:23.606Z,100678.15
2023-05-14T10:45:02.040Z,100667.79
2023-05-14T10:47:30.503Z,100657.98
2023-05-14T10:49:59.344Z,100657.34
2023-05-14T10:52:27.426Z,100656.66
2023-05-14T10:54:57.482Z,100649.38
2023-05-14T10:57:27.682Z,100638.13
2023-05-14T10:59:56.544Z,100652.21
2023-05-14T11:04:50.717Z,100626.97
2023-05-14T11:07:24.334Z,100623.09
2023-05-14T11:09:53.237Z,100630.67
2023-05-14T11:12:21.401Z,100624.48
2023-05-14T11:14:50.360Z,100628.67
2023-05-14T11:17:18.438Z,100629.36
2023-05-14T11:19:46.543Z,100619.73
2023-05-14T11:22:14.661Z,100613.20
2023-05-14T11:24:42.837Z,100613.63
2023-05-14T11:27:10.949Z,100599.40
2023-05-14T11:29:39.226Z,100581.86
2023-05-14T11:32:07.448Z,100580.84
2023-05-14T11:34:37.327Z,100582.71
2023-05-14T11:37:06.020Z,100575.98
2023-05-14T11:39:34.197Z,100573.20
2023-05-14T11:42:06.056Z,100565.34
2023-05-14T11:44:33.989Z,100566.69
2023-05-14T11:47:02.146Z,100557.13
2023-05-14T11:49:30.308Z,100557.70
2023-05-14T11:52:23.254Z,100556.00
2023-05-14T11:54:51.513Z,100555.40
2023-05-14T11:57:21.117Z,100545.13
2023-05-14T11:59:49.891Z,100544.58
2023-05-14T12:02:19.846Z,100538.54
2023-05-14T12:04:50.850Z,100530.17
2023-05-14T12:07:18.858Z,100529.42
2023-05-14T12:09:50.856Z,100530.02
2023-05-14T12:12:20.053Z,100528.15
2023-05-14T12:14:49.304Z,100534.23
2023-05-14T12:17:18.798Z,100531.09
2023-05-14T12:19:48.270Z,100529.73
2023-05-14T12:22:17.995Z,100533.06
2023-05-14T12:24:59.007Z,100526.90
2023-05-14T12:27:27.993Z,100522.98
2023-05-14T12:30:20.124Z,100525.70
2023-05-14T12:32:51.990Z,100525.07
2023-05-14T12:35:21.492Z,100510.41
2023-05-14T12:37:49.418Z,100510.05
2023-05-14T12:40:17.364Z,100511.34
2023-05-14T12:42:45.879Z,100514.83
2023-05-14T12:45:14.378Z,100512.89
2023-05-14T12:47:42.605Z,100504.47
2023-05-14T12:50:10.895Z,100505.41
2023-05-14T12:52:40.208Z,100498.58
2023-05-14T12:55:09.384Z,100500.05
2023-05-14T12:57:39.284Z,100493.20
2023-05-14T13:00:08.712Z,100496.84
2023-05-14T13:02:43.163Z,100495.98
2023-05-14T13:05:12.376Z,100496.70
2023-05-14T13:07:41.149Z,100497.17
2023-05-14T13:10:09.379Z,100497.05
2023-05-14T13:12:37.249Z,100495.96
2023-05-14T13:15:06.563Z,100486.06
2023-05-14T13:17:34.592Z,100479.77
2023-05-14T13:20:02.507Z,100478.95
2023-05-14T13:22:30.418Z,100472.83
2023-05-14T13:24:59.042Z,100467.90
2023-05-14T13:27:27.319Z,100466.14
2023-05-14T13:29:55.616Z,100466.09
2023-05-14T13:32:23.661Z,100472.34
2023-05-14T13:34:51.633Z,100466.16
2023-05-14T13:37:19.890Z,100463.34
2023-05-14T13:39:49.535Z,100463.52
2023-05-14T13:42:19.356Z,100453.70
2023-05-14T13:44:47.269Z,100453.70
2023-05-14T13:47:15.526Z,100449.47
2023-05-14T13:49:43.699Z,100440.38
2023-05-14T13:52:11.738Z,100442.51
2023-05-14T13:54:39.639Z,100436.72
2023-05-14T13:57:07.528Z,100428.95
2023-05-14T13:59:35.871Z,100426.67
2023-05-14T14:02:04.284Z,100423.19
2023-05-14T14:04:32.366Z,100424.46
2023-05-14T14:07:00.627Z,100420.64
2023-05-14T14:09:28.449Z,100414.52
2023-05-14T14:11:56.339Z,100412.95
2023-05-14T14:14:24.273Z,100411.28
2023-05-14T14:16:52.138Z,100402.00
2023-05-14T14:19:20.999Z,100395.26
2023-05-14T14:24:22.091Z,100391.05
2023-05-14T14:26:50.031Z,100398.11
2023-05-14T14:29:17.829Z,100388.07
2023-05-14T14:31:45.913Z,100388.85
2023-05-14T14:34:13.811Z,100388.27
2023-05-14T14:36:41.634Z,100387.91
2023-05-14T14:39:09.495Z,100389.17
2023-05-14T14:41:37.414Z,100389.24
2023-05-14T14:44:05.700Z,100380.40
2023-05-14T14:46:34.160Z,100377.50
2023-05-14T14:49:02.131Z,100373.23
2023-05-14T14:51:30.420Z,100378.70
2023-05-14T14:53:58.600Z,100377.65
2023-05-14T14:56:26.946Z,100371.31
2023-05-14T14:58:54.932Z,100363.85
2023-05-14T15:01:23.150Z,100363.44
2023-05-14T15:03:51.224Z,100353.23
2023-05-14T15:06:19.217Z,100361.14
2023-05-14T15:08:47.114Z,100361.36
2023-05-14T15:11:15.426Z,100358.95
2023-05-14T15:13:43.559Z,100363.38
2023-05-14T15:16:12.550Z,100361.89
2023-05-14T15:18:40.746Z,100358.45
2023-05-14T15:21:08.885Z,100359.85
2023-05-14T15:23:36.759Z,100359.52
2023-05-14T15:26:04.810Z,100357.75
2023-05-14T15:28:32.984Z,100356.64
2023-05-14T15:31:02.468Z,100354.70
2023-05-14T15:33:30.644Z,100351.66
2023-05-14T15:35:58.527Z,100349.13
2023-05-14T15:38:26.658Z,100347.59
2023-05-14T15:40:54.637Z,100346.53
2023-05-14T15:43:22.571Z,100349.39
2023-05-14T15:45:50.925Z,100346.42
2023-05-14T15:48:18.823Z,100341.96
2023-05-14T15:50:49.553Z,100339.43
2023-05-14T15:53:17.823Z,100340.19
2023-05-14T15:55:48.018Z,100338.49
2023-05-14T15:58:16.285Z,100337.09
2023-05-14T16:00:44.374Z,100334.84
2023-05-14T16:03:12.499Z,100333.35
2023-05-14T16:05:42.690Z,100326.61
2023-05-14T16:08:10.739Z,100323.10
2023-05-14T16:10:38.737Z,100325.47
2023-05-14T16:13:06.775Z,100323.77
2023-05-14T16:15:34.907Z,100324.66
2023-05-14T16:18:03.062Z,100319.79
2023-05-14T16:20:31.125Z,100310.58
2023-05-14T16:22:59.111Z,100306.33
2023-05-14T16:25:27.246Z,100296.58
2023-05-14T16:27:55.347Z,100299.88
2023-05-14T16:30:23.649Z,100296.36
2023-05-14T16:32:52.088Z,100293.52
2023-05-14T16:35:20.614Z,100290.80
2023-05-14T16:37:49.539Z,100295.58
2023-05-14T16:40:19.651Z,100293.33
2023-05-14T16:42:49.255Z,100290.45
2023-05-14T16:45:17.811Z,100288.25
2023-05-14T16:47:45.912Z,100287.23
2023-05-14T16:50:13.985Z,100287.70
2023-05-14T16:52:42.160Z,100284.23
2023-05-14T16:55:10.646Z,100283.09
2023-05-14T16:57:38.944Z,100280.67
2023-05-14T17:00:09.616Z,100278.18
2023-05-14T17:02:38.108Z,100275.39
2023-05-14T17:08:01.053Z,100270.74
2023-05-14T17:10:30.951Z,100275.02
2023-05-14T17:12:59.904Z,100282.50
2023-05-14T17:15:46.077Z,100281.20
2023-05-14T17:18:14.215Z,100286.45
2023-05-14T17:20:42.619Z,100282.80
2023-05-14T17:23:10.770Z,100281.30
2023-05-14T17:25:39.334Z,100283.02
2023-05-14T17:28:07.359Z,100279.95
2023-05-14T17:30:35.454Z,100280.43
2023-05-14T17:33:03.821Z,100279.59
2023-05-14T17:35:35.840Z,100277.82
2023-05-14T17:38:03.826Z,100275.85
2023-05-14T17:40:31.945Z,100275.45
2023-05-14T17:42:59.873Z,100274.14
2023-05-14T17:45:32.179Z,100272.00
2023-05-14T17:48:04.905Z,100266.95
2023-05-14T17:50:33.139Z,100267.73
2023-05-14T17:53:01.211Z,100270.69
2023-05-14T17:55:29.251Z,100274.52
2023-05-14T17:57:57.230Z,100272.18
2023-05-14T18:00:25.751Z,100269.86
2023-05-14T18:02:53.790Z,100273.20
2023-05-14T18:05:22.533Z,100273.14
2023-05-14T18:07:51.139Z,100268.89
2023-05-14T18:10:19.728Z,100269.38
2023-05-14T18:12:48.060Z,100271.55
2023-05-14T18:15:16.332Z,100270.59
2023-05-14T18:17:44.840Z,100269.48
2023-05-14T18:20:13.060Z,100272.79
2023-05-14T18:22:41.399Z,100273.61
2023-05-14T18:25:10.013Z,100274.05
2023-05-14T18:27:44.635Z,100273.38
2023-05-14T18:30:14.806Z,100273.29
2023-05-14T18:32:44.578Z,100271.87
2023-05-14T18:35:14.379Z,100272.94
2023-05-14T18:37:42.624Z,100276.14
2023-05-14T18:40:11.389Z,100276.95
2023-05-14T18:42:39.539Z,100277.58
2023-05-14T18:45:08.014Z,100276.85
2023-05-14T18:47:36.728Z,100271.79
2023-05-14T18:50:05.736Z,100273.73
2023-05-14T18:52:34.100Z,100270.96
2023-05-14T18:55:02.094Z,100271.86
2023-05-14T18:57:32.258Z,100279.38
2023-05-14T19:04:52.803Z,100279.66
2023-05-14T19:07:21.717Z,100278.05
2023-05-14T19:09:51.153Z,100269.57
2023-05-14T19:12:19.696Z,100268.70
2023-05-14T19:14:47.789Z,100265.82
2023-05-14T19:17:18.356Z,100257.88
2023-05-14T19:19:47.445Z,100250.47
2023-05-14T19:22:15.466Z,100258.53
2023-05-14T19:24:43.645Z,100254.90
2023-05-14T19:27:16.382Z,100257.89
2023-05-14T19:29:44.901Z,100255.29
2023-05-14T19:32:12.763Z,100249.02
2023-05-14T19:34:41.073Z,100250.55
2023-05-14T19:37:10.829Z,100248.42
2023-05-14T19:39:39.848Z,100244.90
2023-05-14T19:42:07.857Z,100252.84
2023-05-14T19:44:35.775Z,100250.31
2023-05-14T19:47:03.980Z,100246.41
2023-05-14T19:49:32.310Z,100246.70
2023-05-14T19:52:00.625Z,100245.27
2023-05-14T19:54:28.491Z,100246.91
2023-05-14T19:56:57.021Z,100244.36
2023-05-14T19:59:26.450Z,100242.89
2023-05-14T20:01:55.209Z,100238.65
2023-05-14T20:04:23.331Z,100236.86
2023-05-14T20:06:51.516Z,100236.63
2023-05-14T20:09:20.263Z,100238.13
2023-05-14T20:11:48.767Z,100236.81
2023-05-14T20:14:16.925Z,100234.11
2023-05-14T20:16:45.237Z,100230.90
2023-05-14T20:19:14.682Z,100231.01
2023-05-14T20:21:42.780Z,100229.02
2023-05-14T20:24:10.896Z,100228.77
2023-05-14T20:26:38.861Z,100226.92
2023-05-14T20:29:07.024Z,100223.14
2023-05-14T20:31:35.150Z,100218.30
2023-05-14T20:34:03.735Z,100216.55
2023-05-14T20:36:32.105Z,100218.48
2023-05-14T20:39:00.865Z,100213.48
2023-05-14T20:41:29.387Z,100210.36
2023-05-14T20:43:57.379Z,100205.84
2023-05-14T20:46:26.100Z,100205.64
2023-05-14T20:48:55.800Z,100200.40
2023-05-14T20:51:24.397Z,100200.20
2023-05-14T20:53:54.011Z,100195.77
2023-05-14T20:56:22.677Z,100193.91
2023-05-14T20:58:50.764Z,100185.91
2023-05-14T21:01:19.210Z,100186.57
2023-05-14T21:03:47.422Z,100181.12
2023-05-14T21:06:16.628Z,100178.80
2023-05-14T21:08:44.649Z,100175.80
2023-05-14T21:11:14.639Z,100177.83
2023-05-14T21:13:44.548Z,100172.37
2023-05-14T21:16:12.841Z,100172.63
2023-05-14T21:18:40.946Z,100166.98
2023-05-14T21:21:09.209Z,100161.38
2023-05-14T21:23:37.261Z,100165.22
2023-05-14T21:26:05.200Z,100164.13
2023-05-14T21:28:33.248Z,100159.93
2023-05-14T21:31:01.414Z,100159.92
2023-05-14T21:33:29.522Z,100156.60
2023-05-14T21:35:57.573Z,100152.69
2023-05-14T21:38:25.822Z,100149.81
2023-05-14T21:40:53.822Z,100149.58
2023-05-14T21:43:22.152Z,100148.10
2023-05-14T21:45:50.528Z,100143.40
2023-05-14T21:48:18.746Z,100135.69
2023-05-14T21:50:47.111Z,100136.67
2023-05-14T21:53:15.496Z,100134.52
2023-05-14T21:55:43.509Z,100127.69
2023-05-14T21:58:11.582Z,100131.28
2023-05-14T22:00:39.600Z,100126.60
2023-05-14T22:03:07.727Z,100124.27
2023-05-14T22:05:35.964Z,100120.73
2023-05-14T22:08:04.044Z,100116.52
2023-05-14T22:10:32.360Z,100115.45
2023-05-14T22:13:00.375Z,100113.33
2023-05-14T22:15:28.573Z,100113.45
2023-05-14T22:17:57.025Z,100111.65
2023-05-14T22:20:25.044Z,100110.41
2023-05-14T22:22:52.963Z,100104.11
2023-05-14T22:25:20.953Z,100098.70
2023-05-14T22:27:49.922Z,100096.40
2023-05-14T22:30:17.821Z,100095.55
2023-05-14T22:32:45.833Z,100091.79
2023-05-14T22:35:14.786Z,100089.52
2023-05-14T22:37:43.241Z,100085.20
2023-05-14T22:40:13.524Z,100081.53
2023-05-14T22:42:41.533Z,100078.85
2023-05-14T22:45:10.545Z,100074.98
2023-05-14T22:47:41.907Z,100073.73
2023-05-14T22:50:11.673Z,100069.39
2023-05-14T22:52:40.272Z,100068.20
2023-05-14T22:55:09.239Z,100062.42
2023-05-14T22:57:37.671Z,100060.88
2023-05-14T23:00:08.958Z,100058.46
2023-05-14T23:02:36.913Z,100057.41
2023-05-14T23:05:06.330Z,100053.76
2023-05-14T23:07:34.998Z,100055.38
2023-05-14T23:10:03.040Z,100050.18
2023-05-14T23:12:31.288Z,100047.94
2023-05-14T23:14:59.306Z,100041.48
2023-05-14T23:17:27.796Z,100037.14
2023-05-14T23:19:56.043Z,100035.11
2023-05-14T23:22:24.066Z,100037.56
2023-05-14T23:24:51.995Z,100030.65
2023-05-14T23:27:20.247Z,100028.63
2023-05-14T23:29:48.321Z,100025.55
2023-05-14T23:32:16.505Z,100023.20
2023-05-14T23:34:44.559Z,100024.08
2023-05-14T23:37:14.454Z,100018.70
2023-05-14T23:39:42.528Z,100014.38
2023-05-14T23:42:10.402Z,100009.92
2023-05-14T23:44:38.331Z,100007.72
2023-05-14T23:47:08.856Z,100002.56
2023-05-14T23:49:37.014Z,99997.38
2023-05-14T23:52:05.420Z,99996.04
2023-05-14T23:54:33.385Z,99996.08
2023-05-14T23:57:03.450Z,99994.20
2023-05-14T23:59:31.559Z,99986.73
